Time;durP1;ratioP1;P1;durP2;ratioP2;P2;SDS_P1;SDS_P2;PMS_P1;PMS_P2;Temp;Humidity;BMP_temperature;BMP_pressure;BME280_temperature;BME280_humidity;BME280_pressure;Samples;Min_cycle;Max_cycle;Signal;HPM_P1;HPM_P2
2023/12/06 00:02:12;;;;;;;10.93;7.40;;;;;;;0.64;96.99;101761.09;5091176;28;20036;-67
2023/12/06 00:04:37;;;;;;;9.50;6.13;;;;;;;0.60;97.18;101787.91;5089703;28;20035;-68
2023/12/06 00:07:03;;;;;;;7.63;5.93;;;;;;;0.63;97.63;101796.50;5091423;28;20455;-68
2023/12/06 00:09:29;;;;;;;9.60;6.63;;;;;;;0.57;97.65;101785.50;5089868;28;20027;-67
2023/12/06 00:11:54;;;;;;;11.68;6.40;;;;;;;0.66;97.56;101795.41;5072859;28;20047;-67
2023/12/06 00:14:19;;;;;;;9.65;6.88;;;;;;;0.77;96.75;101792.84;5089782;28;20034;-68
2023/12/06 00:16:45;;;;;;;8.20;5.78;;;;;;;0.65;97.38;101783.97;5089773;28;20127;-67
2023/12/06 00:19:10;;;;;;;8.48;5.57;;;;;;;0.66;97.32;101780.38;5091165;28;20032;-68
2023/12/06 00:21:35;;;;;;;9.73;6.30;;;;;;;0.62;97.37;101791.28;5089562;28;20032;-67
2023/12/06 00:24:01;;;;;;;10.15;6.68;;;;;;;0.69;97.07;101787.22;5091734;28;20475;-68
2023/12/06 00:26:26;;;;;;;9.40;6.30;;;;;;;0.83;96.10;101780.94;5091145;28;20113;-68
2023/12/06 00:28:53;;;;;;;11.93;7.05;;;;;;;0.72;96.09;101783.53;5072598;28;20031;-68
2023/12/06 00:31:19;;;;;;;9.80;6.78;;;;;;;0.90;95.10;101782.19;5090638;28;20032;-67
2023/12/06 00:33:44;;;;;;;11.52;6.60;;;;;;;0.74;95.23;101778.97;5091079;28;20024;-70
2023/12/06 00:36:10;;;;;;;10.13;6.72;;;;;;;0.72;95.56;101778.22;5089272;28;20558;-67
2023/12/06 00:38:35;;;;;;;10.00;6.22;;;;;;;0.71;96.06;101787.97;5089606;28;20546;-67
2023/12/06 00:41:01;;;;;;;8.90;6.07;;;;;;;0.72;95.62;101791.47;5091140;28;20128;-67
2023/12/06 00:43:26;;;;;;;10.40;6.00;;;;;;;0.61;95.80;101797.56;5090094;28;20059;-68
2023/12/06 00:45:53;;;;;;;9.23;5.97;;;;;;;0.78;95.23;101791.03;5091044;28;20040;-68
2023/12/06 00:48:18;;;;;;;9.50;6.20;;;;;;;0.82;94.68;101793.34;5090803;28;20031;-68
2023/12/06 00:50:44;;;;;;;9.52;6.47;;;;;;;0.73;94.85;101786.09;5088978;28;20028;-67
2023/12/06 00:53:09;;;;;;;9.07;6.00;;;;;;;0.92;93.63;101786.41;5090494;28;20056;-68
2023/12/06 00:55:34;;;;;;;9.43;6.28;;;;;;;0.85;93.81;101795.75;5090159;28;20031;-67
2023/12/06 00:58:00;;;;;;;9.07;6.40;;;;;;;0.66;94.79;101795.41;5089484;28;20138;-67
2023/12/06 01:00:25;;;;;;;7.50;5.57;;;;;;;0.59;95.33;101802.09;5088813;28;20043;-68
2023/12/06 01:02:51;;;;;;;8.55;5.95;;;;;;;0.63;95.12;101796.50;5089055;28;20093;-68
2023/12/06 01:05:17;;;;;;;9.48;5.90;;;;;;;0.59;95.47;101795.00;5090343;28;20391;-68
2023/12/06 01:07:42;;;;;;;8.65;6.10;;;;;;;0.67;95.15;101800.59;5090158;28;20532;-68
2023/12/06 01:10:08;;;;;;;7.28;5.15;;;;;;;0.44;95.43;101799.59;5089013;28;20031;-68
2023/12/06 01:12:35;;;;;;;9.80;6.25;;;;;;;0.64;95.23;101808.75;5088652;28;20042;-68
2023/12/06 01:15:02;;;;;;;8.68;5.68;;;;;;;0.57;95.25;101811.97;5090653;28;20032;-67
2023/12/06 01:17:27;;;;;;;10.10;6.25;;;;;;;0.65;95.13;101809.59;5090541;28;20560;-68
2023/12/06 01:19:52;;;;;;;10.07;5.70;;;;;;;0.65;94.91;101801.66;5090607;28;20044;-67
2023/12/06 01:22:18;;;;;;;9.10;6.10;;;;;;;0.80;93.79;101802.38;5090508;28;20077;-67
2023/12/06 01:24:43;;;;;;;8.23;5.78;;;;;;;0.76;93.85;101796.41;5089240;28;20024;-67
2023/12/06 01:27:08;;;;;;;9.63;5.75;;;;;;;0.97;92.96;101793.19;5088932;28;20062;-67
2023/12/06 01:29:34;;;;;;;10.10;6.07;;;;;;;0.70;93.28;101794.25;5089183;28;20036;-68
2023/12/06 01:31:59;;;;;;;10.18;6.05;;;;;;;0.83;92.97;101784.44;5090145;28;20027;-67
2023/12/06 01:34:24;;;;;;;9.88;6.45;;;;;;;0.99;91.57;101801.84;5089000;28;20032;-68
2023/12/06 01:36:50;;;;;;;10.25;6.38;;;;;;;0.78;92.60;101801.63;5088726;28;20767;-68
2023/12/06 01:39:15;;;;;;;8.90;6.30;;;;;;;0.88;92.50;101800.00;5090509;28;20498;-67
2023/12/06 01:41:41;;;;;;;9.65;5.88;;;;;;;0.85;92.72;101801.06;5090821;28;20131;-67
2023/12/06 01:44:07;;;;;;;10.80;6.47;;;;;;;0.70;91.83;101776.53;5094499;28;20433;-67
2023/12/06 01:46:32;;;;;;;8.52;5.70;;;;;;;0.63;92.83;101806.22;5093915;28;20024;-67
2023/12/06 01:48:59;;;;;;;9.90;5.85;;;;;;;0.74;92.44;101802.81;5093648;28;20049;-67
2023/12/06 01:51:25;;;;;;;7.35;5.32;;;;;;;0.47;92.94;101795.91;5075821;28;20103;-67
2023/12/06 01:53:51;;;;;;;7.30;5.28;;;;;;;0.51;93.30;101804.47;5092988;28;20491;-68
2023/12/06 01:56:17;;;;;;;9.05;5.65;;;;;;;0.30;94.23;101781.22;5093466;28;20043;-68
2023/12/06 01:58:43;;;;;;;9.75;6.00;;;;;;;0.39;93.89;101807.00;5092452;28;20040;-68
2023/12/06 02:01:09;;;;;;;8.90;5.70;;;;;;;0.30;94.70;101810.31;5092310;28;20115;-68
2023/12/06 02:03:35;;;;;;;9.10;5.80;;;;;;;0.37;95.04;101814.22;5092442;28;20085;-67
2023/12/06 02:06:03;;;;;;;10.88;6.32;;;;;;;0.56;94.01;101815.56;5093792;28;20491;-68
2023/12/06 02:08:33;;;;;;;9.85;5.95;;;;;;;0.59;93.56;101815.34;5093328;28;20050;-67
2023/12/06 02:10:59;;;;;;;9.55;5.80;;;;;;;0.56;93.03;101805.81;5092285;28;20154;-67
2023/12/06 02:13:24;;;;;;;9.75;5.85;;;;;;;0.45;93.06;101817.16;5093712;28;20046;-67
2023/12/06 02:15:51;;;;;;;9.10;5.95;;;;;;;0.53;92.29;101810.47;5092008;28;20059;-67
2023/12/06 02:18:17;;;;;;;11.40;6.55;;;;;;;0.63;91.56;101808.84;5092669;28;20111;-67
2023/12/06 02:20:43;;;;;;;11.55;6.85;;;;;;;0.60;91.69;101811.75;5093648;28;20035;-68
2023/12/06 02:23:11;;;;;;;9.65;6.05;;;;;;;0.59;91.51;101818.00;5093154;28;20036;-67
2023/12/06 02:25:36;;;;;;;9.65;6.05;;;;;;;0.58;91.15;101813.66;5093648;28;20028;-67
2023/12/06 02:28:01;;;;;;;9.55;6.13;;;;;;;0.42;91.84;101819.19;5093257;28;20028;-67
2023/12/06 02:30:27;;;;;;;8.48;5.53;;;;;;;0.23;92.10;101811.69;5093203;28;20543;-68
2023/12/06 02:32:53;;;;;;;9.77;5.53;;;;;;;0.29;92.61;101813.91;5075755;28;20034;-67
2023/12/06 02:35:23;;;;;;;12.50;6.95;;;;;;;0.19;93.13;101812.84;5091753;28;20101;-67
2023/12/06 02:37:51;;;;;;;10.02;6.70;;;;;;;0.38;92.37;101817.72;5092801;28;20386;-67
2023/12/06 02:40:19;;;;;;;10.82;6.63;;;;;;;0.44;91.24;101822.59;5092863;28;20078;-68
2023/12/06 02:42:45;;;;;;;9.80;5.75;;;;;;;0.38;91.45;101818.56;5092655;28;20035;-67
2023/12/06 02:45:10;;;;;;;11.95;6.40;;;;;;;0.40;90.80;101818.47;5093048;28;20020;-67
2023/12/06 02:47:36;;;;;;;11.30;6.40;;;;;;;0.24;91.84;101821.34;5091218;28;20380;-67
2023/12/06 02:50:01;;;;;;;10.73;6.32;;;;;;;0.37;91.39;101822.16;5093060;28;20111;-67
2023/12/06 02:52:27;;;;;;;10.98;6.25;;;;;;;0.52;90.78;101824.69;5091387;28;20502;-68
2023/12/06 02:54:52;;;;;;;10.40;6.20;;;;;;;0.50;90.38;101824.81;5073777;28;20058;-67
2023/12/06 02:57:17;;;;;;;9.45;6.10;;;;;;;0.19;91.29;101818.16;5092857;28;20035;-67
2023/12/06 02:59:43;;;;;;;8.68;5.57;;;;;;;0.23;91.21;101819.63;5090873;28;20044;-68
2023/12/06 03:02:08;;;;;;;12.90;6.75;;;;;;;0.44;90.68;101828.72;5092421;28;20505;-67
2023/12/06 03:04:33;;;;;;;10.85;6.05;;;;;;;0.30;91.15;101828.84;5091250;28;20039;-67
2023/12/06 03:06:59;;;;;;;9.40;6.45;;;;;;;0.25;91.31;101806.31;5093028;28;20093;-68
2023/12/06 03:09:24;;;;;;;10.13;6.00;;;;;;;0.26;90.51;101803.53;5091259;28;20191;-67
2023/12/06 03:11:49;;;;;;;9.25;5.82;;;;;;;0.24;91.61;101821.34;5091321;28;20099;-68
2023/12/06 03:14:15;;;;;;;8.82;6.03;;;;;;;0.15;91.68;101814.88;5091768;28;20040;-68
2023/12/06 03:16:40;;;;;;;7.93;5.78;;;;;;;0.18;92.24;101817.31;5089167;28;20032;-67
2023/12/06 03:19:05;;;;;;;10.38;6.32;;;;;;;0.20;91.81;101818.06;5090625;28;20114;-68
2023/12/06 03:21:31;;;;;;;8.45;5.93;;;;;;;0.18;92.22;101824.41;5090225;28;20399;-67
2023/12/06 03:23:56;;;;;;;9.50;5.75;;;;;;;0.01;92.27;101795.63;5090824;28;20356;-67
2023/12/06 03:26:22;;;;;;;9.10;5.97;;;;;;;-0.02;92.36;101807.25;5090468;28;20028;-68
2023/12/06 03:28:47;;;;;;;9.02;5.82;;;;;;;0.14;92.04;101820.28;5088502;28;20028;-68
2023/12/06 03:31:13;;;;;;;10.20;5.78;;;;;;;0.05;92.65;101828.84;5091912;28;20471;-68
2023/12/06 03:33:38;;;;;;;9.77;5.38;;;;;;;-0.18;92.98;101782.81;5091324;28;20127;-67
2023/12/06 03:36:03;;;;;;;7.93;5.45;;;;;;;0.01;92.89;101824.72;5091429;28;20100;-68
2023/12/06 03:38:29;;;;;;;9.40;5.15;;;;;;;0.12;92.61;101822.19;5090439;28;20551;-67
2023/12/06 03:40:54;;;;;;;11.73;6.47;;;;;;;0.06;91.95;101825.25;5091184;28;20016;-67
2023/12/06 03:43:20;;;;;;;9.23;5.35;;;;;;;0.21;91.32;101818.91;5091590;28;20036;-67
2023/12/06 03:45:45;;;;;;;9.80;5.82;;;;;;;0.32;91.05;101826.09;5091567;28;20031;-68
2023/12/06 03:48:10;;;;;;;9.50;5.68;;;;;;;0.13;90.67;101802.69;5107385;28;20437;-67
2023/12/06 03:50:36;;;;;;;8.45;5.10;;;;;;;0.26;90.09;101822.06;5090553;28;20032;-67
2023/12/06 03:53:02;;;;;;;8.13;5.65;;;;;;;0.29;90.21;101821.00;5091684;28;20020;-67
2023/12/06 03:55:27;;;;;;;8.40;5.30;;;;;;;0.52;88.94;101820.22;5091427;28;20103;-68
2023/12/06 03:57:52;;;;;;;10.27;5.60;;;;;;;0.45;88.70;101825.09;5089912;28;20024;-68
2023/12/06 04:00:18;;;;;;;8.40;5.43;;;;;;;-0.01;87.95;101759.53;5091674;28;20078;-67
2023/12/06 04:02:43;;;;;;;9.10;5.63;;;;;;;0.27;89.68;101833.53;5090139;28;20020;-68
2023/12/06 04:05:09;;;;;;;8.82;5.40;;;;;;;0.51;88.16;101833.59;5089889;28;20036;-68
2023/12/06 04:07:34;;;;;;;8.75;5.13;;;;;;;0.50;88.16;101834.53;5090627;28;20028;-68
2023/12/06 04:10:00;;;;;;;8.18;5.00;;;;;;;0.51;87.27;101833.59;5090109;28;20020;-68
2023/12/06 04:12:26;;;;;;;7.82;4.97;;;;;;;0.37;88.05;101827.47;5090518;28;20057;-67
2023/12/06 04:14:53;;;;;;;8.13;5.00;;;;;;;0.22;89.01;101831.19;5091555;28;20125;-68
2023/12/06 04:17:19;;;;;;;6.90;4.85;;;;;;;0.09;89.35;101811.81;5073309;28;20035;-67
2023/12/06 04:19:44;;;;;;;9.13;5.40;;;;;;;0.27;89.02;101830.88;5090286;28;20040;-67
2023/12/06 04:22:10;;;;;;;8.15;5.15;;;;;;;0.23;88.86;101833.72;5091441;28;20117;-67
2023/12/06 04:24:37;;;;;;;7.95;4.80;;;;;;;0.02;88.89;101811.38;5089719;28;20024;-69
2023/12/06 04:27:03;;;;;;;6.93;4.32;;;;;;;0.02;89.39;101843.13;5090170;28;20394;-68
2023/12/06 04:29:28;;;;;;;7.65;5.00;;;;;;;0.26;88.95;101837.94;5090819;28;20023;-67
2023/12/06 04:31:54;;;;;;;6.88;4.50;;;;;;;0.05;89.31;101850.03;5089564;28;20432;-68
2023/12/06 04:34:19;;;;;;;7.32;5.00;;;;;;;0.29;88.71;101844.81;5090295;28;20036;-67
2023/12/06 04:36:44;;;;;;;6.40;4.45;;;;;;;0.26;88.32;101845.88;5090718;28;20036;-68
2023/12/06 04:39:11;;;;;;;6.32;4.57;;;;;;;0.06;89.71;101841.97;5072589;28;20085;-67
2023/12/06 04:41:36;;;;;;;8.35;4.97;;;;;;;-0.27;90.48;101810.72;5090742;28;20028;-68
2023/12/06 04:44:02;;;;;;;7.55;5.03;;;;;;;0.14;89.74;101841.47;5090452;28;20054;-67
2023/12/06 04:46:27;;;;;;;7.63;4.50;;;;;;;0.14;89.48;101836.16;5089900;28;20410;-67
2023/12/06 04:48:53;;;;;;;7.35;4.70;;;;;;;0.26;88.69;101824.72;5090525;28;20556;-67
2023/12/06 04:51:19;;;;;;;7.15;4.47;;;;;;;0.31;88.42;101829.69;5090717;28;20024;-67
2023/12/06 04:53:45;;;;;;;7.30;4.68;;;;;;;0.27;88.31;101837.00;5090416;28;20105;-67
2023/12/06 04:56:11;;;;;;;8.57;4.93;;;;;;;0.12;89.38;101843.34;5089764;28;20493;-67
2023/12/06 04:58:37;;;;;;;8.07;4.75;;;;;;;0.16;89.71;101848.31;5090756;28;20047;-67
2023/12/06 05:01:02;;;;;;;6.80;4.45;;;;;;;0.19;88.80;101840.16;5090814;28;20120;-68
2023/12/06 05:03:28;;;;;;;11.30;6.45;;;;;;;0.27;88.94;101838.81;5091449;28;20056;-67
2023/12/06 05:05:54;;;;;;;6.35;4.80;;;;;;;0.22;88.93;101839.97;5072352;28;20521;-67
2023/12/06 05:08:19;;;;;;;13.20;8.85;;;;;;;0.16;88.98;101843.03;5089230;28;20040;-67
2023/12/06 05:10:44;;;;;;;13.05;8.75;;;;;;;0.32;88.77;101844.63;5072504;28;20028;-68
2023/12/06 05:13:10;;;;;;;15.20;9.68;;;;;;;0.46;87.96;101848.00;5090357;28;20103;-67
2023/12/06 05:15:35;;;;;;;11.05;6.80;;;;;;;0.57;87.18;101849.06;5055580;28;20035;-68
2023/12/06 05:18:01;;;;;;;13.45;8.88;;;;;;;0.56;86.92;101847.34;5093975;28;20032;-68
2023/12/06 05:20:26;;;;;;;13.65;8.18;;;;;;;0.14;87.68;101809.69;5092891;28;20038;-67
2023/12/06 05:22:52;;;;;;;9.13;6.10;;;;;;;0.40;87.41;101847.59;5094427;28;20103;-68
2023/12/06 05:25:19;;;;;;;22.85;13.68;;;;;;;0.44;87.37;101854.34;5094476;28;20487;-72
2023/12/06 05:27:44;;;;;;;8.82;5.95;;;;;;;0.30;86.74;101855.34;5093117;28;20055;-70
2023/12/06 05:30:11;;;;;;;10.48;6.72;;;;;;;0.30;87.35;101847.38;5093163;28;20448;-70
2023/12/06 05:32:37;;;;;;;8.88;5.85;;;;;;;0.33;87.48;101852.47;5076608;28;20058;-71
2023/12/06 05:35:03;;;;;;;9.63;7.05;;;;;;;0.32;87.01;101848.09;5094252;28;20495;-67
2023/12/06 05:37:29;;;;;;;14.77;9.23;;;;;;;0.09;88.12;101854.16;5092820;28;20056;-68
2023/12/06 05:39:54;;;;;;;13.95;9.60;;;;;;;0.16;88.32;101863.34;5093968;28;20059;-69
2023/12/06 05:42:20;;;;;;;11.80;9.10;;;;;;;0.24;88.32;101868.97;5094179;28;20036;-68
2023/12/06 05:44:45;;;;;;;8.18;5.07;;;;;;;0.21;88.54;101872.69;5094431;28;20417;-71
2023/12/06 05:47:10;;;;;;;6.82;4.38;;;;;;;0.19;88.48;101857.84;5093328;28;20459;-70
2023/12/06 05:49:36;;;;;;;20.13;13.82;;;;;;;0.29;87.73;101872.16;5075503;28;20073;-71
2023/12/06 05:52:01;;;;;;;24.65;17.38;;;;;;;0.35;87.68;101874.38;5076291;28;20483;-70
2023/12/06 05:54:26;;;;;;;8.45;6.90;;;;;;;0.33;87.72;101878.06;5092997;28;20032;-70
2023/12/06 05:56:52;;;;;;;7.18;4.85;;;;;;;0.28;87.73;101849.28;5093918;28;20016;-70
2023/12/06 05:59:17;;;;;;;5.40;4.07;;;;;;;0.32;87.38;101861.34;5093309;28;20082;-70
2023/12/06 06:01:43;;;;;;;5.75;4.35;;;;;;;0.37;87.36;101864.53;5090703;28;20056;-70
2023/12/06 06:04:08;;;;;;;6.22;4.15;;;;;;;0.39;87.07;101867.06;5092996;28;20039;-70
2023/12/06 06:06:34;;;;;;;7.60;3.60;;;;;;;0.14;87.51;101863.47;5092631;28;20043;-70
2023/12/06 06:09:00;;;;;;;6.72;4.10;;;;;;;0.07;88.20;101864.00;5090594;28;20016;-71
2023/12/06 06:11:26;;;;;;;7.80;3.90;;;;;;;0.12;87.93;101865.38;5073884;28;20662;-69
2023/12/06 06:13:51;;;;;;;5.47;3.72;;;;;;;0.04;88.20;101869.50;5091831;28;20113;-71
2023/12/06 06:16:17;;;;;;;6.05;4.38;;;;;;;0.01;88.03;101845.91;5091483;28;20334;-70
2023/12/06 06:18:42;;;;;;;5.53;3.75;;;;;;;0.14;88.14;101876.72;5089641;28;20379;-70
2023/12/06 06:21:08;;;;;;;5.38;3.75;;;;;;;0.01;87.96;101873.22;5091274;28;20040;-70
2023/12/06 06:23:33;;;;;;;6.47;3.75;;;;;;;0.16;87.74;101871.28;5093356;28;20036;-71
2023/12/06 06:25:59;;;;;;;5.55;4.13;;;;;;;0.14;87.98;101868.78;5075400;28;20457;-71
2023/12/06 06:28:24;;;;;;;6.38;4.03;;;;;;;0.13;88.16;101875.03;5090362;28;20406;-71
2023/12/06 06:30:50;;;;;;;6.38;3.90;;;;;;;0.05;88.22;101877.34;5091799;28;20066;-71
2023/12/06 06:33:16;;;;;;;6.65;3.95;;;;;;;-0.02;88.35;101871.59;5092262;28;20043;-70
2023/12/06 06:35:41;;;;;;;6.43;4.00;;;;;;;0.23;87.62;101880.50;5091926;28;20055;-71
2023/12/06 06:38:06;;;;;;;7.30;4.20;;;;;;;0.18;87.03;101853.53;5108980;28;20024;-70
2023/12/06 06:40:32;;;;;;;5.63;3.35;;;;;;;0.12;87.08;101872.47;5091567;28;20398;-71
2023/12/06 06:42:57;;;;;;;5.43;3.88;;;;;;;0.17;87.65;101873.84;5092087;28;20040;-70
2023/12/06 06:45:23;;;;;;;5.97;4.20;;;;;;;0.21;87.50;101870.03;5092245;28;20059;-71
2023/12/06 06:47:48;;;;;;;6.47;4.32;;;;;;;0.40;86.50;101863.47;5092096;28;20181;-71
2023/12/06 06:50:15;;;;;;;5.82;3.58;;;;;;;0.53;85.83;101874.91;5074832;28;20036;-70
2023/12/06 06:52:41;;;;;;;5.35;3.65;;;;;;;0.51;85.74;101878.59;5075206;28;20027;-71
2023/12/06 06:55:07;;;;;;;6.75;3.30;;;;;;;0.30;86.22;101879.16;5092399;28;20016;-71
2023/12/06 06:57:32;;;;;;;7.43;3.38;;;;;;;0.18;86.89;101864.09;5091692;28;20028;-72
2023/12/06 06:59:58;;;;;;;6.30;3.67;;;;;;;0.49;85.98;101880.50;5091521;28;20059;-70
2023/12/06 07:02:23;;;;;;;6.75;4.10;;;;;;;0.67;85.37;101887.19;5092918;28;20032;-70
2023/12/06 07:04:48;;;;;;;6.90;4.30;;;;;;;0.50;85.99;101891.00;5093220;28;20024;-72
2023/12/06 07:07:14;;;;;;;5.88;4.18;;;;;;;0.74;85.29;101891.06;5091820;28;20024;-71
2023/12/06 07:09:39;;;;;;;7.90;5.80;;;;;;;0.66;85.04;101890.75;5091154;28;20032;-71
2023/12/06 07:12:05;;;;;;;7.32;4.45;;;;;;;0.79;84.50;101891.59;5108213;28;20109;-71
2023/12/06 07:14:31;;;;;;;6.10;4.50;;;;;;;0.86;84.14;101895.50;5091659;28;20035;-71
2023/12/06 07:16:57;;;;;;;8.80;4.50;;;;;;;0.79;83.78;101878.34;5074258;28;20032;-71
2023/12/06 07:19:23;;;;;;;7.25;4.32;;;;;;;0.74;84.18;101877.84;5091143;28;20036;-72
2023/12/06 07:21:48;;;;;;;6.72;5.63;;;;;;;0.84;84.14;101899.22;5074361;28;20028;-71
2023/12/06 07:24:14;;;;;;;10.80;6.97;;;;;;;0.69;84.60;101895.84;5092631;28;20028;-71
2023/12/06 07:26:39;;;;;;;7.57;5.88;;;;;;;0.85;84.16;101875.25;5091021;28;20127;-71
2023/12/06 07:29:05;;;;;;;7.65;5.70;;;;;;;0.94;83.94;101893.16;5092347;28;20030;-71
2023/12/06 07:31:31;;;;;;;8.82;4.95;;;;;;;0.73;83.69;101857.59;5074214;28;20412;-71
2023/12/06 07:33:57;;;;;;;8.68;4.72;;;;;;;0.80;84.22;101893.28;5092118;28;20020;-71
2023/12/06 07:36:22;;;;;;;9.20;4.20;;;;;;;0.82;84.83;101888.72;5092283;28;20046;-71
2023/12/06 07:38:49;;;;;;;8.73;4.43;;;;;;;0.88;84.43;101896.22;5091336;28;20554;-71
2023/12/06 07:41:15;;;;;;;6.50;3.95;;;;;;;0.88;84.46;101901.53;5090756;28;20035;-71
2023/12/06 07:43:40;;;;;;;6.85;3.28;;;;;;;0.98;84.10;101901.72;5092557;28;20093;-71
2023/12/06 07:46:06;;;;;;;8.18;4.38;;;;;;;0.91;84.65;101903.97;5092271;28;20106;-71
2023/12/06 07:48:50;;;;;;;5.35;3.72;;;;;;;0.89;84.99;101897.94;5092208;28;20046;-71
2023/12/06 07:51:15;;;;;;;6.13;3.77;;;;;;;0.77;85.79;101896.16;5091097;28;20081;-71
2023/12/06 07:53:41;;;;;;;9.52;3.90;;;;;;;0.65;85.69;101881.97;5090891;28;20272;-71
2023/12/06 07:56:07;;;;;;;7.53;3.42;;;;;;;0.75;86.47;101892.75;5107851;28;20699;-71
2023/12/06 07:58:33;;;;;;;10.07;3.85;;;;;;;0.98;85.84;101900.88;5091735;28;20059;-71
2023/12/06 08:00:59;;;;;;;5.38;3.50;;;;;;;0.87;86.74;101902.50;5091967;28;20032;-71
2023/12/06 08:03:26;;;;;;;7.97;3.55;;;;;;;0.81;86.98;101900.28;5091639;28;20024;-72
2023/12/06 08:05:52;;;;;;;7.97;3.70;;;;;;;0.82;87.20;101898.47;5091914;28;20418;-71
2023/12/06 08:08:18;;;;;;;6.97;3.65;;;;;;;0.76;87.83;101902.41;5073634;28;20333;-71
2023/12/06 08:10:43;;;;;;;7.32;3.58;;;;;;;0.68;87.47;101883.56;5073110;28;20069;-71
2023/12/06 08:13:09;;;;;;;3.63;2.95;;;;;;;0.89;87.45;101902.38;5091237;28;20039;-71
2023/12/06 08:15:34;;;;;;;6.93;3.40;;;;;;;1.21;85.91;101913.31;5091377;28;20055;-71
2023/12/06 08:18:00;;;;;;;5.28;3.75;;;;;;;1.07;85.41;101901.06;5091334;28;20411;-71
2023/12/06 08:20:25;;;;;;;6.43;3.83;;;;;;;0.94;86.11;101917.00;5090525;28;20028;-72
2023/12/06 08:22:50;;;;;;;5.13;4.10;;;;;;;0.92;86.38;101912.75;5090184;28;20479;-71
2023/12/06 08:25:16;;;;;;;7.13;3.75;;;;;;;0.81;87.05;101916.19;5090932;28;20035;-71
2023/12/06 08:27:41;;;;;;;8.85;4.20;;;;;;;1.14;85.87;101923.53;5090231;28;20486;-71
2023/12/06 08:30:07;;;;;;;11.25;4.15;;;;;;;0.87;86.37;101921.03;5089769;28;20028;-71
2023/12/06 08:32:32;;;;;;;6.40;4.35;;;;;;;1.24;85.10;101918.41;5091071;28;20078;-72
2023/12/06 08:34:58;;;;;;;6.07;4.55;;;;;;;1.33;84.95;101920.41;5073464;28;20036;-71
2023/12/06 08:37:23;;;;;;;9.98;4.90;;;;;;;1.39;84.57;101922.59;5091720;28;20036;-71
2023/12/06 08:39:49;;;;;;;6.47;4.00;;;;;;;1.59;83.54;101912.31;5090462;28;20020;-71
2023/12/06 08:42:14;;;;;;;6.90;4.05;;;;;;;1.25;84.59;101913.94;5073373;28;20058;-72
2023/12/06 08:44:41;;;;;;;6.53;3.90;;;;;;;1.54;84.33;101919.78;5090067;28;20105;-71
2023/12/06 08:47:07;;;;;;;6.28;4.10;;;;;;;1.44;83.83;101908.16;5089767;28;20513;-71
2023/12/06 08:49:34;;;;;;;9.15;3.80;;;;;;;1.24;84.59;101901.66;5089540;28;20020;-72
2023/12/06 08:51:59;;;;;;;4.88;3.53;;;;;;;1.52;83.82;101903.13;5089590;28;20032;-71
2023/12/06 08:54:24;;;;;;;7.30;3.88;;;;;;;1.30;84.91;101910.00;5089772;28;20498;-71
2023/12/06 08:56:50;;;;;;;4.97;3.47;;;;;;;1.47;84.26;101913.25;5089699;28;20028;-71
2023/12/06 08:59:15;;;;;;;5.10;3.75;;;;;;;1.52;83.98;101924.34;5090607;28;20076;-71
2023/12/06 09:01:41;;;;;;;5.72;3.17;;;;;;;1.57;84.08;101922.22;5089699;28;20036;-72
2023/12/06 09:04:06;;;;;;;5.07;3.35;;;;;;;1.74;83.87;101924.44;5090709;28;20436;-72
2023/12/06 09:06:34;;;;;;;4.50;3.15;;;;;;;1.71;83.40;101924.69;5073179;28;20028;-72
2023/12/06 09:09:02;;;;;;;6.85;3.28;;;;;;;1.61;83.76;101926.31;5090299;28;20032;-72
2023/12/06 09:11:27;;;;;;;5.28;2.90;;;;;;;1.74;84.35;101928.91;5090016;28;20028;-71
2023/12/06 09:13:53;;;;;;;4.25;2.90;;;;;;;1.43;84.30;101915.28;5090695;28;20028;-72
2023/12/06 09:16:18;;;;;;;4.72;2.80;;;;;;;1.66;85.19;101924.19;5072286;28;20479;-71
2023/12/06 09:18:43;;;;;;;4.93;3.00;;;;;;;1.76;84.57;101937.63;5072491;28;20508;-72
2023/12/06 09:21:09;;;;;;;3.15;2.55;;;;;;;1.85;84.29;101936.91;5072644;28;20616;-72
2023/12/06 09:23:34;;;;;;;4.18;3.03;;;;;;;1.76;84.43;101919.88;5090752;28;20024;-71
2023/12/06 09:26:00;;;;;;;4.65;2.53;;;;;;;1.72;84.50;101922.88;5089483;28;20158;-71
2023/12/06 09:28:25;;;;;;;3.63;2.65;;;;;;;1.68;84.68;101890.41;5091133;28;20051;-71
2023/12/06 09:30:51;;;;;;;4.72;2.67;;;;;;;1.78;84.36;101925.91;5072478;28;20066;-71
2023/12/06 09:33:16;;;;;;;3.53;2.60;;;;;;;1.93;83.78;101917.78;5089406;28;20066;-71
2023/12/06 09:35:42;;;;;;;4.35;2.63;;;;;;;1.76;84.77;101921.69;5072580;28;20506;-71
2023/12/06 09:38:08;;;;;;;7.40;2.83;;;;;;;1.93;84.56;101923.09;5090562;28;20031;-72
2023/12/06 09:40:33;;;;;;;4.88;2.90;;;;;;;2.08;83.55;101924.56;5090812;28;20486;-71
2023/12/06 09:43:01;;;;;;;5.25;2.65;;;;;;;1.78;84.19;101893.22;5090812;28;20542;-72
2023/12/06 09:45:27;;;;;;;4.25;3.08;;;;;;;1.84;84.30;101921.97;5090640;28;20029;-72
2023/12/06 09:47:54;;;;;;;4.30;2.90;;;;;;;1.80;84.81;101924.00;5072643;28;20514;-71
2023/12/06 09:50:20;;;;;;;4.65;2.85;;;;;;;1.96;84.51;101929.00;5090672;28;20482;-72
2023/12/06 09:52:50;;;;;;;3.65;2.50;;;;;;;2.06;83.38;101924.69;5088847;28;20063;-71
2023/12/06 09:55:24;;;;;;;4.05;2.80;;;;;;;1.90;83.35;101925.97;5088815;28;20157;-71
2023/12/06 09:57:53;;;;;;;3.05;2.50;;;;;;;1.58;84.88;101914.13;5090281;28;20035;-71
2023/12/06 10:00:19;;;;;;;3.25;2.13;;;;;;;1.63;85.58;101919.94;5089632;28;20044;-72
2023/12/06 10:02:51;;;;;;;4.35;2.33;;;;;;;1.66;85.06;101913.56;5089796;28;20040;-71
2023/12/06 10:05:17;;;;;;;5.22;2.33;;;;;;;1.71;84.71;101916.72;5094112;28;20027;-71
2023/12/06 10:07:43;;;;;;;5.18;2.42;;;;;;;1.76;84.70;101917.22;5093888;28;20032;-71
2023/12/06 10:10:16;;;;;;;4.20;2.78;;;;;;;1.88;84.19;101918.09;5094057;28;20044;-71
2023/12/06 10:12:49;;;;;;;4.30;2.70;;;;;;;1.95;83.77;101907.88;5092543;28;20463;-71
2023/12/06 10:15:16;;;;;;;2.83;2.17;;;;;;;1.79;84.12;101900.25;5094476;28;20035;-71
2023/12/06 10:17:42;;;;;;;5.38;2.28;;;;;;;1.82;83.89;101914.13;5094042;28;20027;-72
2023/12/06 10:20:08;;;;;;;5.60;3.90;;;;;;;2.06;82.86;101897.31;5094232;28;20055;-72
2023/12/06 10:22:34;;;;;;;8.63;4.13;;;;;;;1.94;83.90;101903.53;5092628;28;20027;-72
2023/12/06 10:25:00;;;;;;;10.88;5.40;;;;;;;1.98;83.95;101899.69;5075906;28;20087;-71
2023/12/06 10:27:27;;;;;;;10.38;5.00;;;;;;;2.46;81.91;101900.38;5059168;28;20123;-72
2023/12/06 10:29:52;;;;;;;10.23;7.10;;;;;;;2.49;81.27;101899.31;5091943;28;20012;-72
2023/12/06 10:32:19;;;;;;;4.63;2.88;;;;;;;2.43;82.11;101897.97;5093666;28;20050;-72
2023/12/06 10:34:46;;;;;;;4.72;3.70;;;;;;;2.29;81.51;101869.81;5092165;28;20032;-71
2023/12/06 10:37:12;;;;;;;3.85;2.92;;;;;;;2.67;80.49;101889.03;5093664;28;20036;-72
2023/12/06 10:39:39;;;;;;;4.90;2.72;;;;;;;2.73;80.70;101878.75;5092230;28;20036;-71
2023/12/06 10:42:10;;;;;;;3.67;2.13;;;;;;;2.38;80.68;101891.31;5092129;28;20043;-72
2023/12/06 10:44:37;;;;;;;6.13;3.47;;;;;;;2.71;81.28;101882.50;5092892;28;20096;-71
2023/12/06 10:47:04;;;;;;;3.72;2.20;;;;;;;2.45;80.52;101879.25;5091744;28;20044;-71
2023/12/06 10:49:33;;;;;;;5.43;3.08;;;;;;;2.30;80.92;101887.44;5091799;28;20514;-71
2023/12/06 10:51:59;;;;;;;4.38;2.95;;;;;;;2.63;80.45;101882.28;5091384;28;20022;-72
2023/12/06 10:54:26;;;;;;;3.33;2.20;;;;;;;2.57;80.64;101878.28;5091983;28;20043;-71
2023/12/06 10:56:52;;;;;;;4.30;2.80;;;;;;;2.56;80.96;101881.91;5108694;28;20547;-73
2023/12/06 10:59:20;;;;;;;13.75;7.57;;;;;;;2.72;80.52;101882.41;5074560;28;20058;-71
2023/12/06 11:01:46;;;;;;;4.85;2.78;;;;;;;2.34;80.08;101869.47;5091489;28;20102;-71
2023/12/06 11:04:12;;;;;;;4.55;2.70;;;;;;;2.79;80.63;101893.38;5093464;28;20108;-71
2023/12/06 11:07:12;;;;;;;6.43;3.88;;;;;;;2.64;80.52;101874.19;5060153;28;20036;-71
2023/12/06 11:09:49;;;;;;;6.38;4.57;;;;;;;2.73;79.96;101893.88;5098167;28;20020;-72
2023/12/06 11:12:14;;;;;;;18.05;13.73;;;;;;;2.58;80.03;101890.59;5094976;28;20028;-72
2023/12/06 11:15:01;;;;;;;16.27;11.23;;;;;;;2.51;80.11;101889.38;5091133;28;20077;-72
2023/12/06 11:17:39;;;;;;;17.65;12.95;;;;;;;2.64;80.26;101895.44;5093002;28;20024;-71
2023/12/06 11:20:05;;;;;;;3.38;2.55;;;;;;;2.93;79.75;101900.25;5091812;28;20127;-72
2023/12/06 11:22:30;;;;;;;4.82;2.88;;;;;;;3.16;78.24;101898.41;5091558;28;20170;-71
2023/12/06 11:24:56;;;;;;;3.05;2.22;;;;;;;2.90;78.82;101873.91;5091173;28;20024;-71
2023/12/06 11:27:22;;;;;;;3.78;2.15;;;;;;;2.86;78.42;101893.75;5091377;28;20664;-71